createdAt,value
2019-05-03T00:01:42.088Z,8.75
2019-05-03T00:04:13.383Z,8.79
2019-05-03T00:06:43.803Z,8.69
2019-05-03T00:09:17.752Z,8.73
2019-05-03T00:11:48.221Z,8.79
2019-05-03T00:14:19.053Z,8.80
2019-05-03T00:16:52.110Z,8.71
2019-05-03T00:19:22.671Z,8.73
2019-05-03T00:21:53.436Z,8.78
2019-05-03T00:24:23.915Z,8.69
2019-05-03T00:26:54.354Z,8.67
2019-05-03T00:29:24.767Z,8.59
2019-05-03T00:31:55.596Z,8.57
2019-05-03T00:34:32.417Z,8.58
2019-05-03T00:37:04.994Z,8.52
2019-05-03T00:39:41.755Z,8.47
2019-05-03T00:42:12.476Z,8.42
2019-05-03T00:44:42.887Z,8.44
2019-05-03T00:47:13.307Z,8.43
2019-05-03T00:49:44.114Z,8.44
2019-05-03T00:52:14.541Z,8.47
2019-05-03T00:54:44.960Z,8.44
2019-05-03T00:57:15.427Z,8.51
2019-05-03T00:59:45.850Z,8.43
2019-05-03T01:02:16.583Z,8.39
2019-05-03T01:04:47.056Z,8.38
2019-05-03T01:07:17.854Z,8.42
2019-05-03T01:09:48.279Z,8.40
2019-05-03T01:12:19.123Z,8.37
2019-05-03T01:14:51.608Z,8.31
2019-05-03T01:17:22.535Z,8.18
2019-05-03T01:19:52.972Z,8.11
2019-05-03T01:22:23.411Z,8.06
2019-05-03T01:24:53.891Z,8.08
2019-05-03T01:27:24.314Z,8.04
2019-05-03T01:29:54.746Z,8.04
2019-05-03T01:32:25.526Z,8.06
2019-05-03T01:34:56.262Z,8.08
2019-05-03T01:37:26.687Z,8.08
2019-05-03T01:39:57.188Z,8.05
2019-05-03T01:42:27.998Z,8.10
2019-05-03T01:44:58.430Z,8.00
2019-05-03T01:47:37.536Z,8.02
2019-05-03T01:50:34.660Z,8.01
2019-05-03T01:53:06.419Z,7.99
2019-05-03T01:55:52.527Z,8.01
2019-05-03T01:58:24.742Z,8.08
2019-05-03T02:01:02.854Z,7.94
2019-05-03T02:03:41.839Z,7.84
2019-05-03T02:06:12.747Z,7.85
2019-05-03T02:08:43.176Z,7.75
2019-05-03T02:11:14.018Z,7.75
2019-05-03T02:13:44.896Z,7.84
2019-05-03T02:16:16.004Z,7.85
2019-05-03T02:18:46.433Z,7.88
2019-05-03T02:21:17.299Z,7.82
2019-05-03T02:23:48.043Z,7.85
2019-05-03T02:26:18.885Z,7.89
2019-05-03T02:28:49.317Z,7.81
2019-05-03T02:31:22.931Z,7.83
2019-05-03T02:33:53.518Z,7.82
2019-05-03T02:36:24.430Z,7.74
2019-05-03T02:38:55.435Z,7.74
2019-05-03T02:41:25.865Z,7.78
2019-05-03T02:43:57.482Z,7.78
2019-05-03T02:46:37.604Z,7.72
2019-05-03T02:49:36.351Z,7.66
2019-05-03T02:52:06.908Z,7.61
2019-05-03T02:54:37.666Z,7.61
2019-05-03T02:57:08.158Z,7.62
2019-05-03T02:59:40.177Z,7.59
2019-05-03T03:02:10.722Z,7.60
2019-05-03T03:04:42.199Z,7.57
2019-05-03T03:07:15.157Z,7.53
2019-05-03T03:09:47.081Z,7.53
2019-05-03T03:12:18.863Z,7.52
2019-05-03T03:14:50.228Z,7.41
2019-05-03T03:17:25.255Z,7.48
2019-05-03T03:19:57.801Z,7.36
2019-05-03T03:22:30.974Z,7.39
2019-05-03T03:25:05.451Z,7.33
2019-05-03T03:27:39.066Z,7.30
2019-05-03T03:30:29.903Z,7.30
2019-05-03T03:33:02.189Z,7.30
2019-05-03T03:35:37.629Z,7.27
2019-05-03T03:38:05.783Z,7.27
2019-05-03T03:40:36.697Z,7.24
2019-05-03T03:43:09.040Z,7.30
2019-05-03T03:45:41.595Z,7.23
2019-05-03T03:48:15.804Z,7.26
2019-05-03T03:50:48.540Z,7.24
2019-05-03T03:53:20.641Z,7.24
2019-05-03T03:55:52.977Z,7.25
2019-05-03T03:58:26.725Z,7.13
2019-05-03T04:00:55.671Z,7.21
2019-05-03T04:03:26.954Z,7.25
2019-05-03T04:05:57.390Z,7.27
2019-05-03T04:08:28.118Z,7.21
2019-05-03T04:10:58.692Z,7.10
2019-05-03T04:13:31.580Z,7.10
2019-05-03T04:16:21.517Z,7.23
2019-05-03T04:18:59.518Z,7.21
2019-05-03T04:21:30.368Z,7.25
2019-05-03T04:24:01.271Z,7.20
2019-05-03T04:26:31.814Z,7.19
2019-05-03T04:29:05.099Z,7.21
2019-05-03T04:31:36.822Z,7.24
2019-05-03T04:34:06.997Z,7.25
2019-05-03T04:36:37.790Z,7.28
2019-05-03T04:39:08.558Z,7.32
2019-05-03T04:41:38.988Z,7.33
2019-05-03T04:44:09.484Z,7.31
2019-05-03T04:46:40.376Z,7.27
2019-05-03T04:49:11.195Z,7.32
2019-05-03T04:51:42.123Z,7.33
2019-05-03T04:54:37.253Z,7.33
2019-05-03T04:57:08.111Z,7.38
2019-05-03T04:59:38.874Z,7.48
2019-05-03T05:02:09.647Z,7.50
2019-05-03T05:04:40.140Z,7.47
2019-05-03T05:07:10.569Z,7.54
2019-05-03T05:09:41.898Z,7.56
2019-05-03T05:12:12.376Z,7.61
2019-05-03T05:14:45.506Z,7.70
2019-05-03T05:17:18.477Z,7.78
2019-05-03T05:19:59.518Z,7.85
2019-05-03T05:22:31.671Z,7.87
2019-05-03T05:25:01.416Z,7.96
2019-05-03T05:28:00.014Z,8.02
2019-05-03T05:30:31.121Z,8.06
2019-05-03T05:33:02.289Z,8.15
2019-05-03T05:35:32.769Z,8.19
2019-05-03T05:38:04.623Z,8.15
2019-05-03T05:40:35.764Z,8.18
2019-05-03T05:43:06.249Z,8.26
2019-05-03T05:45:36.680Z,8.24
2019-05-03T05:48:09.776Z,8.34
2019-05-03T05:50:44.765Z,8.47
2019-05-03T05:53:15.247Z,8.52
2019-05-03T05:56:05.038Z,8.61
2019-05-03T05:58:55.396Z,8.74
2019-05-03T06:01:32.835Z,8.69
2019-05-03T06:04:05.366Z,8.80
2019-05-03T06:06:46.143Z,8.89
2019-05-03T06:09:35.501Z,8.93
2019-05-03T06:12:20.415Z,8.82
2019-05-03T06:14:55.219Z,8.94
2019-05-03T06:17:34.823Z,9.03
2019-05-03T06:20:24.586Z,9.14
2019-05-03T06:23:05.677Z,9.29
2019-05-03T06:25:39.690Z,9.30
2019-05-03T06:28:20.998Z,9.48
2019-05-03T06:31:08.776Z,9.49
2019-05-03T06:33:39.264Z,9.47
2019-05-03T06:36:09.697Z,9.58
2019-05-03T06:38:42.319Z,9.43
2019-05-03T06:41:15.063Z,9.38
2019-05-03T06:43:48.672Z,9.49
2019-05-03T06:46:23.596Z,9.64
2019-05-03T06:48:51.710Z,9.73
2019-05-03T06:51:22.149Z,9.82
2019-05-03T06:53:54.770Z,9.70
2019-05-03T06:56:29.103Z,9.66
2019-05-03T06:58:57.908Z,9.69
2019-05-03T07:01:35.274Z,9.87
2019-05-03T07:04:15.242Z,10.01
2019-05-03T07:07:02.489Z,10.22
2019-05-03T07:09:55.237Z,10.15
2019-05-03T07:12:26.707Z,9.99
2019-05-03T07:14:57.105Z,10.10
2019-05-03T07:17:27.600Z,10.14
2019-05-03T07:19:59.087Z,10.25
2019-05-03T07:22:29.824Z,10.40
2019-05-03T07:25:00.310Z,10.50
2019-05-03T07:27:31.324Z,10.48
2019-05-03T07:30:01.760Z,10.38
2019-05-03T07:32:32.252Z,10.40
2019-05-03T07:35:04.508Z,10.47
2019-05-03T07:37:34.978Z,10.58
2019-05-03T07:40:06.008Z,10.74
2019-05-03T07:42:36.440Z,10.75
2019-05-03T07:45:07.117Z,10.68
2019-05-03T07:47:38.559Z,10.38
2019-05-03T07:50:09.200Z,10.27
2019-05-03T07:52:39.631Z,10.45
2019-05-03T07:55:10.113Z,10.55
2019-05-03T07:57:49.986Z,10.74
2019-05-03T08:00:25.382Z,10.73
2019-05-03T08:02:55.647Z,10.43
2019-05-03T08:05:26.818Z,10.62
2019-05-03T08:07:57.783Z,10.65
2019-05-03T08:10:28.214Z,10.53
2019-05-03T08:12:58.649Z,10.39
2019-05-03T08:15:29.545Z,10.14
2019-05-03T08:17:59.989Z,10.25
2019-05-03T08:20:30.936Z,10.40
2019-05-03T08:23:01.736Z,10.82
2019-05-03T08:25:32.165Z,11.09
2019-05-03T08:28:02.687Z,11.35
2019-05-03T08:30:54.342Z,11.65
2019-05-03T08:33:35.416Z,11.61
2019-05-03T08:36:06.017Z,11.32
2019-05-03T08:38:36.753Z,11.17
2019-05-03T08:41:09.332Z,11.23
2019-05-03T08:43:40.065Z,11.51
2019-05-03T08:46:10.505Z,11.80
2019-05-03T08:48:41.988Z,11.94
2019-05-03T08:51:12.416Z,11.69
2019-05-03T08:53:42.851Z,11.48
2019-05-03T08:56:15.501Z,11.19
2019-05-03T08:58:45.488Z,10.88
2019-05-03T09:01:15.939Z,10.79
2019-05-03T09:03:46.424Z,10.75
2019-05-03T09:06:16.852Z,10.66
2019-05-03T09:08:47.277Z,10.85
2019-05-03T09:11:30.607Z,11.01
2019-05-03T09:13:51.928Z,11.16
2019-05-03T09:16:22.715Z,11.18
2019-05-03T09:18:54.897Z,11.45
2019-05-03T09:21:25.827Z,11.70
2019-05-03T09:23:56.751Z,11.83
2019-05-03T09:26:29.541Z,11.94
2019-05-03T09:28:59.671Z,12.10
2019-05-03T09:31:30.144Z,12.21
2019-05-03T09:34:00.736Z,12.35
2019-05-03T09:36:31.172Z,12.10
2019-05-03T09:39:01.663Z,11.78
2019-05-03T09:41:32.096Z,11.65
2019-05-03T09:44:04.618Z,11.47
2019-05-03T09:46:35.404Z,11.11
2019-05-03T09:49:12.778Z,10.90
2019-05-03T09:51:38.563Z,10.99
2019-05-03T09:54:25.487Z,11.04
2019-05-03T09:56:59.840Z,11.27
2019-05-03T09:59:31.334Z,11.40
2019-05-03T10:02:04.746Z,11.79
2019-05-03T10:04:36.670Z,12.03
2019-05-03T10:07:07.284Z,11.97
2019-05-03T10:09:38.018Z,11.92
2019-05-03T10:12:12.512Z,11.82
2019-05-03T10:14:45.058Z,11.79
2019-05-03T10:17:52.464Z,11.60
2019-05-03T10:20:25.296Z,11.45
2019-05-03T10:22:59.307Z,11.44
2019-05-03T10:25:29.738Z,11.42
2019-05-03T10:28:00.504Z,11.66
2019-05-03T10:30:31.000Z,12.04
2019-05-03T10:33:26.039Z,12.22
2019-05-03T10:35:56.767Z,12.04
2019-05-03T10:38:27.576Z,11.94
2019-05-03T10:40:58.476Z,11.80
2019-05-03T10:43:28.956Z,11.67
2019-05-03T10:45:59.712Z,11.52
2019-05-03T10:48:30.145Z,11.43
2019-05-03T10:51:01.698Z,11.34
2019-05-03T10:53:42.244Z,11.51
2019-05-03T10:56:23.131Z,11.51
2019-05-03T10:58:58.310Z,11.65
2019-05-03T11:01:47.792Z,11.95
2019-05-03T11:04:18.224Z,12.37
2019-05-03T11:06:48.997Z,12.39
2019-05-03T11:09:19.481Z,12.34
2019-05-03T11:11:50.374Z,12.24
2019-05-03T11:14:21.206Z,11.92
2019-05-03T11:16:51.702Z,11.82
2019-05-03T11:19:22.132Z,11.59
2019-05-03T11:21:54.597Z,11.47
2019-05-03T11:24:27.210Z,11.39
2019-05-03T11:27:00.144Z,11.13
2019-05-03T11:29:30.741Z,11.12
2019-05-03T11:32:16.668Z,11.04
2019-05-03T11:35:15.504Z,10.93
2019-05-03T11:38:05.330Z,10.95
2019-05-03T11:40:35.738Z,11.09
2019-05-03T11:43:06.172Z,11.21
2019-05-03T11:45:36.608Z,11.32
2019-05-03T11:48:07.180Z,11.61
2019-05-03T11:50:37.629Z,11.81
2019-05-03T11:53:08.061Z,12.06
2019-05-03T11:55:38.550Z,12.40
2019-05-03T11:58:18.985Z,12.31
2019-05-03T12:01:11.907Z,12.11
2019-05-03T12:03:35.652Z,11.92
2019-05-03T12:06:06.647Z,11.86
2019-05-03T12:08:37.370Z,11.79
2019-05-03T12:11:08.592Z,11.75
2019-05-03T12:13:39.332Z,11.68
2019-05-03T12:16:17.429Z,11.66
2019-05-03T12:18:52.134Z,11.56
2019-05-03T12:21:17.301Z,11.50
2019-05-03T12:23:47.232Z,11.45
2019-05-03T12:26:18.500Z,11.40
2019-05-03T12:28:49.331Z,11.41
2019-05-03T12:31:33.512Z,11.57
2019-05-03T12:33:51.939Z,11.54
2019-05-03T12:36:24.656Z,11.52
2019-05-03T12:38:54.979Z,11.47
2019-05-03T12:41:25.867Z,11.52
2019-05-03T12:43:56.295Z,11.59
2019-05-03T12:46:26.735Z,11.60
2019-05-03T12:48:57.525Z,11.49
2019-05-03T12:51:28.040Z,11.68
2019-05-03T12:53:58.568Z,12.01
2019-05-03T12:56:32.768Z,12.51
2019-05-03T12:59:16.022Z,12.79
2019-05-03T13:02:08.269Z,13.11
2019-05-03T13:04:39.026Z,13.12
2019-05-03T13:07:16.276Z,12.82
2019-05-03T13:09:47.050Z,12.87
2019-05-03T13:12:20.355Z,12.78
2019-05-03T13:14:51.196Z,12.59
2019-05-03T13:17:37.711Z,12.65
2019-05-03T13:20:10.347Z,12.55
2019-05-03T13:22:40.880Z,12.45
2019-05-03T13:25:12.903Z,12.27
2019-05-03T13:27:46.166Z,12.00
2019-05-03T13:30:16.378Z,12.11
2019-05-03T13:32:46.836Z,12.70
2019-05-03T13:35:17.600Z,12.95
2019-05-03T13:37:48.655Z,12.91
2019-05-03T13:40:19.119Z,12.84
2019-05-03T13:42:57.667Z,12.70
2019-05-03T13:45:22.127Z,12.70
2019-05-03T13:47:55.065Z,12.57
2019-05-03T13:50:25.815Z,12.48
2019-05-03T13:52:56.245Z,12.36
2019-05-03T13:55:26.983Z,12.32
2019-05-03T13:57:57.785Z,12.35
2019-05-03T14:00:28.200Z,12.45
2019-05-03T14:02:59.604Z,12.62
2019-05-03T14:05:30.036Z,12.84
2019-05-03T14:08:00.801Z,13.15
2019-05-03T14:10:31.651Z,13.10
2019-05-03T14:13:02.708Z,12.96
2019-05-03T14:15:34.773Z,12.61
2019-05-03T14:18:06.169Z,12.51
2019-05-03T14:21:05.210Z,12.40
2019-05-03T14:23:54.824Z,12.29
2019-05-03T14:26:25.531Z,12.23
2019-05-03T14:28:56.297Z,12.19
2019-05-03T14:31:26.778Z,12.22
2019-05-03T14:33:57.564Z,12.11
2019-05-03T14:36:28.002Z,12.04
2019-05-03T14:38:58.492Z,11.97
2019-05-03T14:41:29.672Z,11.90
2019-05-03T14:44:00.123Z,11.80
2019-05-03T14:46:33.256Z,11.70
2019-05-03T14:49:02.765Z,11.70
2019-05-03T14:51:34.935Z,11.73
2019-05-03T14:54:06.451Z,11.74
2019-05-03T14:56:59.377Z,11.78
2019-05-03T14:59:58.467Z,11.88
2019-05-03T15:02:43.666Z,11.91
2019-05-03T15:05:08.262Z,11.90
2019-05-03T15:07:38.704Z,11.94
2019-05-03T15:10:09.435Z,11.88
2019-05-03T15:12:41.244Z,11.81
2019-05-03T15:15:14.504Z,11.77
2019-05-03T15:17:45.818Z,11.84
2019-05-03T15:20:16.466Z,12.01
2019-05-03T15:22:47.159Z,11.98
2019-05-03T15:25:17.603Z,12.03
2019-05-03T15:27:48.678Z,11.95
2019-05-03T15:30:19.353Z,12.00
2019-05-03T15:32:57.706Z,12.03
2019-05-03T15:35:22.073Z,11.95
2019-05-03T15:37:52.672Z,11.82
2019-05-03T15:40:25.151Z,11.88
2019-05-03T15:43:05.550Z,11.85
2019-05-03T15:46:01.961Z,11.69
2019-05-03T15:48:37.022Z,11.82
2019-05-03T15:51:07.457Z,11.56
2019-05-03T15:53:37.884Z,11.61
2019-05-03T15:56:08.385Z,11.60
2019-05-03T15:58:38.845Z,11.72
2019-05-03T16:01:09.310Z,11.78
2019-05-03T16:03:40.600Z,11.74
2019-05-03T16:06:11.073Z,11.69
2019-05-03T16:08:41.506Z,11.60
2019-05-03T16:11:12.077Z,11.66
2019-05-03T16:13:42.520Z,11.55
2019-05-03T16:16:15.103Z,11.62
2019-05-03T16:18:45.844Z,11.63
2019-05-03T16:21:16.285Z,11.72
2019-05-03T16:23:46.811Z,11.63
2019-05-03T16:26:17.453Z,11.57
2019-05-03T16:28:55.611Z,11.56
2019-05-03T16:31:26.833Z,11.56
2019-05-03T16:33:57.230Z,11.51
2019-05-03T16:36:27.825Z,11.51
2019-05-03T16:38:58.288Z,11.45
2019-05-03T16:41:28.719Z,11.31
2019-05-03T16:43:59.227Z,11.28
2019-05-03T16:46:29.887Z,11.25
2019-05-03T16:49:00.906Z,11.21
2019-05-03T16:51:31.699Z,11.23
2019-05-03T16:54:02.945Z,11.14
2019-05-03T16:56:35.137Z,11.13
2019-05-03T16:59:06.938Z,10.98
2019-05-03T17:01:39.172Z,11.02
2019-05-03T17:04:40.783Z,10.97
2019-05-03T17:07:30.496Z,10.93
2019-05-03T17:10:20.283Z,10.85
2019-05-03T17:12:51.128Z,10.91
2019-05-03T17:15:21.969Z,10.78
2019-05-03T17:17:53.219Z,10.77
2019-05-03T17:20:25.393Z,10.71
2019-05-03T17:22:56.372Z,10.60
2019-05-03T17:25:27.253Z,10.69
2019-05-03T17:27:59.117Z,10.67
2019-05-03T17:30:33.814Z,10.69
2019-05-03T17:33:01.806Z,10.71
2019-05-03T17:35:34.488Z,10.69
2019-05-03T17:38:05.289Z,10.62
2019-05-03T17:40:57.382Z,10.59
2019-05-03T17:43:41.481Z,10.65
2019-05-03T17:46:12.233Z,10.62
2019-05-03T17:48:42.736Z,10.53
2019-05-03T17:51:32.562Z,10.60
2019-05-03T17:54:33.306Z,10.49
2019-05-03T17:57:18.547Z,10.47
2019-05-03T17:59:54.886Z,10.42
2019-05-03T18:02:38.283Z,10.40
2019-05-03T18:05:19.261Z,10.43
2019-05-03T18:08:18.231Z,10.38
2019-05-03T18:10:55.044Z,10.40
2019-05-03T18:13:25.678Z,10.37
2019-05-03T18:15:56.633Z,10.35
2019-05-03T18:18:28.025Z,10.30
2019-05-03T18:20:58.536Z,10.24
2019-05-03T18:23:29.000Z,10.24
2019-05-03T18:25:59.893Z,10.15
2019-05-03T18:28:30.388Z,10.16
2019-05-03T18:31:01.161Z,10.12
2019-05-03T18:33:31.607Z,10.12
2019-05-03T18:36:02.495Z,10.05
2019-05-03T18:38:39.242Z,10.02
2019-05-03T18:41:11.725Z,10.03
2019-05-03T18:44:02.255Z,9.95
2019-05-03T18:46:41.756Z,10.02
2019-05-03T18:49:14.528Z,10.00
2019-05-03T18:51:49.114Z,9.96
2019-05-03T18:54:20.025Z,9.96
2019-05-03T18:56:52.895Z,10.00
2019-05-03T18:59:23.324Z,9.97
2019-05-03T19:01:55.238Z,9.95
2019-05-03T19:04:47.805Z,9.88
2019-05-03T19:07:36.684Z,9.82
2019-05-03T19:10:31.501Z,9.80
2019-05-03T19:13:15.775Z,9.71
2019-05-03T19:15:47.511Z,9.68
2019-05-03T19:18:28.999Z,9.65
2019-05-03T19:20:59.831Z,9.59
2019-05-03T19:23:30.263Z,9.56
2019-05-03T19:26:01.343Z,9.62
2019-05-03T19:28:31.920Z,9.58
2019-05-03T19:31:05.649Z,9.53
2019-05-03T19:33:37.271Z,9.45
2019-05-03T19:36:08.265Z,9.42
2019-05-03T19:38:39.084Z,9.49
2019-05-03T19:41:10.852Z,9.47
2019-05-03T19:43:42.095Z,9.43
2019-05-03T19:46:12.555Z,9.30
2019-05-03T19:48:45.636Z,9.29
2019-05-03T19:51:16.064Z,9.27
2019-05-03T19:53:55.162Z,9.29
2019-05-03T19:56:26.008Z,9.25
2019-05-03T19:59:01.271Z,9.18
2019-05-03T20:01:49.548Z,9.20
2019-05-03T20:04:37.243Z,9.13
2019-05-03T20:07:28.463Z,9.16
2019-05-03T20:09:59.234Z,9.13
2019-05-03T20:12:30.328Z,9.13
2019-05-03T20:15:00.753Z,9.13
2019-05-03T20:17:31.564Z,9.08
2019-05-03T20:20:04.756Z,9.09
2019-05-03T20:22:35.801Z,9.09
2019-05-03T20:25:09.606Z,9.08
2019-05-03T20:27:40.384Z,8.99
2019-05-03T20:30:11.244Z,9.01
2019-05-03T20:32:41.740Z,9.02
2019-05-03T20:35:18.864Z,8.98
2019-05-03T20:37:44.844Z,8.98
2019-05-03T20:40:16.226Z,8.98
2019-05-03T20:42:54.381Z,8.88
2019-05-03T20:45:30.763Z,8.85
2019-05-03T20:48:01.586Z,8.86
2019-05-03T20:50:32.043Z,8.80
2019-05-03T20:53:03.015Z,8.87
2019-05-03T20:55:34.722Z,8.73
2019-05-03T20:58:08.342Z,8.75
2019-05-03T21:00:37.835Z,8.76
2019-05-03T21:03:08.265Z,8.74
2019-05-03T21:05:38.688Z,8.72
2019-05-03T21:08:09.835Z,8.61
2019-05-03T21:10:40.541Z,8.59
2019-05-03T21:13:12.283Z,8.60
2019-05-03T21:16:01.695Z,8.66
2019-05-03T21:18:54.104Z,8.53
2019-05-03T21:21:31.345Z,8.55
2019-05-03T21:24:07.474Z,8.57
2019-05-03T21:26:37.960Z,8.47
2019-05-03T21:29:08.392Z,8.46
2019-05-03T21:31:38.823Z,8.40
2019-05-03T21:34:09.298Z,8.51
2019-05-03T21:36:39.730Z,8.42
2019-05-03T21:39:10.560Z,8.45
2019-05-03T21:41:41.728Z,8.44
2019-05-03T21:44:29.692Z,8.45
2019-05-03T21:47:07.636Z,8.44
2019-05-03T21:49:41.603Z,8.45
2019-05-03T21:52:14.596Z,8.36
2019-05-03T21:54:45.139Z,8.33
2019-05-03T21:57:16.916Z,8.38
2019-05-03T21:59:47.351Z,8.37
2019-05-03T22:02:17.870Z,8.35
2019-05-03T22:04:48.834Z,8.37
2019-05-03T22:07:19.640Z,8.36
2019-05-03T22:09:50.072Z,8.30
2019-05-03T22:12:20.939Z,8.30
2019-05-03T22:14:57.372Z,8.12
2019-05-03T22:17:45.547Z,8.09
2019-05-03T22:20:31.201Z,7.91
2019-05-03T22:23:11.815Z,7.92
2019-05-03T22:25:43.056Z,7.77
2019-05-03T22:28:15.499Z,7.78
2019-05-03T22:30:46.015Z,7.81
2019-05-03T22:33:16.453Z,7.82
2019-05-03T22:35:47.213Z,7.76
2019-05-03T22:38:18.051Z,7.73
2019-05-03T22:40:48.779Z,7.74
2019-05-03T22:43:19.235Z,7.75
2019-05-03T22:45:50.392Z,7.65
2019-05-03T22:48:21.504Z,7.72
2019-05-03T22:50:51.927Z,7.68
2019-05-03T22:53:22.769Z,7.70
2019-05-03T22:55:54.307Z,7.69
2019-05-03T22:58:25.035Z,7.68
2019-05-03T23:00:55.476Z,7.54
2019-05-03T23:03:26.978Z,7.54
2019-05-03T23:05:57.404Z,7.52
2019-05-03T23:08:28.199Z,7.39
2019-05-03T23:11:00.327Z,7.48
2019-05-03T23:13:30.752Z,7.50
2019-05-03T23:16:01.547Z,7.52
2019-05-03T23:18:32.025Z,7.41
2019-05-03T23:21:10.925Z,7.54
2019-05-03T23:23:51.940Z,7.61
2019-05-03T23:26:22.414Z,7.40
2019-05-03T23:28:52.843Z,7.41
2019-05-03T23:31:25.105Z,7.32
2019-05-03T23:33:55.442Z,7.30
2019-05-03T23:36:33.241Z,7.31
2019-05-03T23:38:58.649Z,7.33
2019-05-03T23:41:29.120Z,7.36
2019-05-03T23:44:00.322Z,7.38
2019-05-03T23:46:36.602Z,7.28
2019-05-03T23:49:07.390Z,7.31
2019-05-03T23:51:52.386Z,7.31
2019-05-03T23:54:24.681Z,7.24
2019-05-03T23:56:56.263Z,7.07
2019-05-03T23:59:26.886Z,7.00
